sensor_id;sensor_type;location;lat;lon;timestamp;P1;durP1;ratioP1;P2;durP2;ratioP2
45909;SDS011;31622;55.416;37.840;2023-02-22T00:00:26;8.95;;;5.95;;
45909;SDS011;31622;55.416;37.840;2023-02-22T00:03:14;9.57;;;6.00;;
45909;SDS011;31622;55.416;37.840;2023-02-22T00:05:49;9.13;;;5.57;;
45909;SDS011;31622;55.416;37.840;2023-02-22T00:08:19;10.93;;;5.88;;
45909;SDS011;31622;55.416;37.840;2023-02-22T00:10:46;10.48;;;6.50;;
45909;SDS011;31622;55.416;37.840;2023-02-22T00:13:16;8.27;;;5.70;;
45909;SDS011;31622;55.416;37.840;2023-02-22T00:15:43;9.77;;;6.38;;
45909;SDS011;31622;55.416;37.840;2023-02-22T00:18:11;10.02;;;6.00;;
45909;SDS011;31622;55.416;37.840;2023-02-22T00:20:38;9.90;;;5.85;;
45909;SDS011;31622;55.416;37.840;2023-02-22T00:23:08;10.80;;;6.40;;
45909;SDS011;31622;55.416;37.840;2023-02-22T00:25:38;8.23;;;5.85;;
45909;SDS011;31622;55.416;37.840;2023-02-22T00:28:04;10.75;;;5.70;;
45909;SDS011;31622;55.416;37.840;2023-02-22T00:30:30;9.32;;;5.50;;
45909;SDS011;31622;55.416;37.840;2023-02-22T00:32:56;9.00;;;6.10;;
45909;SDS011;31622;55.416;37.840;2023-02-22T00:35:24;8.93;;;6.03;;
45909;SDS011;31622;55.416;37.840;2023-02-22T00:37:53;8.90;;;5.63;;
45909;SDS011;31622;55.416;37.840;2023-02-22T00:40:22;7.85;;;5.35;;
45909;SDS011;31622;55.416;37.840;2023-02-22T00:42:49;8.40;;;5.95;;
45909;SDS011;31622;55.416;37.840;2023-02-22T00:45:15;8.55;;;5.63;;
45909;SDS011;31622;55.416;37.840;2023-02-22T00:47:43;10.07;;;6.18;;
45909;SDS011;31622;55.416;37.840;2023-02-22T00:50:08;10.15;;;6.82;;
45909;SDS011;31622;55.416;37.840;2023-02-22T00:52:35;8.18;;;5.70;;
45909;SDS011;31622;55.416;37.840;2023-02-22T00:55:03;7.78;;;5.45;;
45909;SDS011;31622;55.416;37.840;2023-02-22T00:57:30;8.63;;;5.90;;
45909;SDS011;31622;55.416;37.840;2023-02-22T00:59:56;10.10;;;5.93;;
45909;SDS011;31622;55.416;37.840;2023-02-22T01:02:21;9.38;;;5.95;;
45909;SDS011;31622;55.416;37.840;2023-02-22T01:04:47;9.57;;;6.20;;
45909;SDS011;31622;55.416;37.840;2023-02-22T01:07:13;10.75;;;6.78;;
45909;SDS011;31622;55.416;37.840;2023-02-22T01:09:39;9.55;;;5.93;;
45909;SDS011;31622;55.416;37.840;2023-02-22T01:12:06;9.07;;;5.95;;
45909;SDS011;31622;55.416;37.840;2023-02-22T01:14:32;9.65;;;6.53;;
45909;SDS011;31622;55.416;37.840;2023-02-22T01:16:59;10.00;;;6.57;;
45909;SDS011;31622;55.416;37.840;2023-02-22T01:19:24;11.00;;;5.95;;
45909;SDS011;31622;55.416;37.840;2023-02-22T01:21:50;9.80;;;5.65;;
45909;SDS011;31622;55.416;37.840;2023-02-22T01:24:16;9.07;;;5.70;;
45909;SDS011;31622;55.416;37.840;2023-02-22T01:26:43;8.77;;;6.07;;
45909;SDS011;31622;55.416;37.840;2023-02-22T01:29:13;10.02;;;5.90;;
45909;SDS011;31622;55.416;37.840;2023-02-22T01:31:40;9.00;;;6.07;;
45909;SDS011;31622;55.416;37.840;2023-02-22T01:34:11;9.68;;;6.32;;
45909;SDS011;31622;55.416;37.840;2023-02-22T01:36:37;9.57;;;6.00;;
45909;SDS011;31622;55.416;37.840;2023-02-22T01:39:04;11.20;;;6.45;;
45909;SDS011;31622;55.416;37.840;2023-02-22T01:41:30;8.93;;;6.25;;
45909;SDS011;31622;55.416;37.840;2023-02-22T01:43:57;8.68;;;5.70;;
45909;SDS011;31622;55.416;37.840;2023-02-22T01:46:23;8.75;;;5.70;;
45909;SDS011;31622;55.416;37.840;2023-02-22T01:51:35;11.95;;;5.82;;
45909;SDS011;31622;55.416;37.840;2023-02-22T01:54:05;9.30;;;6.15;;
45909;SDS011;31622;55.416;37.840;2023-02-22T01:56:35;8.82;;;6.10;;
45909;SDS011;31622;55.416;37.840;2023-02-22T01:59:05;10.38;;;5.80;;
45909;SDS011;31622;55.416;37.840;2023-02-22T02:01:34;9.52;;;6.28;;
45909;SDS011;31622;55.416;37.840;2023-02-22T02:04:03;8.63;;;5.50;;
45909;SDS011;31622;55.416;37.840;2023-02-22T02:06:31;8.05;;;5.55;;
45909;SDS011;31622;55.416;37.840;2023-02-22T02:11:35;7.60;;;5.68;;
45909;SDS011;31622;55.416;37.840;2023-02-22T02:14:05;11.10;;;5.80;;
45909;SDS011;31622;55.416;37.840;2023-02-22T02:16:40;8.98;;;5.70;;
45909;SDS011;31622;55.416;37.840;2023-02-22T02:19:33;7.45;;;5.57;;
45909;SDS011;31622;55.416;37.840;2023-02-22T02:31:12;9.05;;;5.22;;
45909;SDS011;31622;55.416;37.840;2023-02-22T02:33:52;8.13;;;5.40;;
45909;SDS011;31622;55.416;37.840;2023-02-22T02:36:48;8.98;;;5.90;;
45909;SDS011;31622;55.416;37.840;2023-02-22T02:42:15;9.65;;;5.63;;
45909;SDS011;31622;55.416;37.840;2023-02-22T02:44:53;11.07;;;6.18;;
45909;SDS011;31622;55.416;37.840;2023-02-22T02:47:28;11.10;;;6.68;;
45909;SDS011;31622;55.416;37.840;2023-02-22T02:53:00;13.00;;;7.20;;
45909;SDS011;31622;55.416;37.840;2023-02-22T02:55:30;12.52;;;6.75;;
45909;SDS011;31622;55.416;37.840;2023-02-22T02:57:57;12.15;;;6.97;;
45909;SDS011;31622;55.416;37.840;2023-02-22T03:00:25;15.43;;;7.40;;
45909;SDS011;31622;55.416;37.840;2023-02-22T03:05:45;12.65;;;7.22;;
45909;SDS011;31622;55.416;37.840;2023-02-22T03:08:30;11.45;;;6.75;;
45909;SDS011;31622;55.416;37.840;2023-02-22T03:13:34;11.68;;;6.57;;
45909;SDS011;31622;55.416;37.840;2023-02-22T03:19:16;13.15;;;7.38;;
45909;SDS011;31622;55.416;37.840;2023-02-22T03:21:51;11.10;;;6.30;;
45909;SDS011;31622;55.416;37.840;2023-02-22T03:24:26;13.23;;;6.57;;
45909;SDS011;31622;55.416;37.840;2023-02-22T03:29:34;11.00;;;6.45;;
45909;SDS011;31622;55.416;37.840;2023-02-22T03:32:04;11.68;;;6.20;;
45909;SDS011;31622;55.416;37.840;2023-02-22T03:34:41;13.38;;;6.28;;
45909;SDS011;31622;55.416;37.840;2023-02-22T03:37:15;12.38;;;6.60;;
45909;SDS011;31622;55.416;37.840;2023-02-22T03:42:13;10.05;;;6.28;;
45909;SDS011;31622;55.416;37.840;2023-02-22T03:44:42;9.93;;;6.00;;
45909;SDS011;31622;55.416;37.840;2023-02-22T03:47:13;11.88;;;6.40;;
45909;SDS011;31622;55.416;37.840;2023-02-22T03:49:54;9.68;;;5.68;;
45909;SDS011;31622;55.416;37.840;2023-02-22T03:52:24;10.65;;;6.15;;
45909;SDS011;31622;55.416;37.840;2023-02-22T03:54:52;10.38;;;6.70;;
45909;SDS011;31622;55.416;37.840;2023-02-22T03:57:26;9.07;;;5.38;;
45909;SDS011;31622;55.416;37.840;2023-02-22T04:02:38;10.32;;;5.80;;
45909;SDS011;31622;55.416;37.840;2023-02-22T04:05:05;10.57;;;6.43;;
45909;SDS011;31622;55.416;37.840;2023-02-22T04:07:31;11.00;;;6.32;;
45909;SDS011;31622;55.416;37.840;2023-02-22T04:09:57;11.32;;;6.15;;
45909;SDS011;31622;55.416;37.840;2023-02-22T04:12:24;8.95;;;6.18;;
45909;SDS011;31622;55.416;37.840;2023-02-22T04:14:55;12.93;;;6.25;;
45909;SDS011;31622;55.416;37.840;2023-02-22T04:17:22;10.52;;;5.88;;
45909;SDS011;31622;55.416;37.840;2023-02-22T04:19:48;11.00;;;5.97;;
45909;SDS011;31622;55.416;37.840;2023-02-22T04:22:14;10.77;;;5.90;;
45909;SDS011;31622;55.416;37.840;2023-02-22T04:24:40;9.35;;;5.68;;
45909;SDS011;31622;55.416;37.840;2023-02-22T04:27:05;10.00;;;5.78;;
45909;SDS011;31622;55.416;37.840;2023-02-22T04:29:35;9.55;;;5.63;;
45909;SDS011;31622;55.416;37.840;2023-02-22T04:32:05;10.60;;;5.93;;
45909;SDS011;31622;55.416;37.840;2023-02-22T04:34:31;12.35;;;5.97;;
45909;SDS011;31622;55.416;37.840;2023-02-22T04:36:56;12.60;;;6.50;;
45909;SDS011;31622;55.416;37.840;2023-02-22T04:39:22;11.38;;;5.65;;
45909;SDS011;31622;55.416;37.840;2023-02-22T04:41:49;11.13;;;6.03;;
45909;SDS011;31622;55.416;37.840;2023-02-22T04:44:15;11.18;;;6.38;;
45909;SDS011;31622;55.416;37.840;2023-02-22T04:46:41;11.73;;;6.78;;
45909;SDS011;31622;55.416;37.840;2023-02-22T04:49:07;11.07;;;6.32;;
45909;SDS011;31622;55.416;37.840;2023-02-22T04:51:36;11.30;;;6.25;;
45909;SDS011;31622;55.416;37.840;2023-02-22T04:54:06;10.50;;;6.28;;
45909;SDS011;31622;55.416;37.840;2023-02-22T04:56:34;10.95;;;5.80;;
45909;SDS011;31622;55.416;37.840;2023-02-22T04:58:59;11.20;;;6.20;;
45909;SDS011;31622;55.416;37.840;2023-02-22T05:01:29;10.15;;;6.15;;
45909;SDS011;31622;55.416;37.840;2023-02-22T05:03:58;9.15;;;5.65;;
45909;SDS011;31622;55.416;37.840;2023-02-22T05:06:25;12.27;;;6.47;;
45909;SDS011;31622;55.416;37.840;2023-02-22T05:08:51;11.63;;;6.38;;
45909;SDS011;31622;55.416;37.840;2023-02-22T05:11:17;10.15;;;6.15;;
45909;SDS011;31622;55.416;37.840;2023-02-22T05:13:43;7.43;;;5.32;;
45909;SDS011;31622;55.416;37.840;2023-02-22T05:16:08;9.10;;;5.90;;
45909;SDS011;31622;55.416;37.840;2023-02-22T05:18:34;9.63;;;5.28;;
45909;SDS011;31622;55.416;37.840;2023-02-22T05:21:00;11.27;;;6.53;;
45909;SDS011;31622;55.416;37.840;2023-02-22T05:23:25;10.75;;;5.65;;
45909;SDS011;31622;55.416;37.840;2023-02-22T05:25:51;10.60;;;6.20;;
45909;SDS011;31622;55.416;37.840;2023-02-22T05:28:17;10.68;;;5.95;;
45909;SDS011;31622;55.416;37.840;2023-02-22T05:30:43;8.82;;;5.85;;
45909;SDS011;31622;55.416;37.840;2023-02-22T05:33:08;8.38;;;5.25;;
45909;SDS011;31622;55.416;37.840;2023-02-22T05:35:34;9.40;;;5.70;;
45909;SDS011;31622;55.416;37.840;2023-02-22T05:38:01;9.05;;;6.00;;
45909;SDS011;31622;55.416;37.840;2023-02-22T05:40:28;8.32;;;5.70;;
45909;SDS011;31622;55.416;37.840;2023-02-22T05:42:54;9.05;;;5.20;;
45909;SDS011;31622;55.416;37.840;2023-02-22T05:45:21;9.57;;;5.95;;
45909;SDS011;31622;55.416;37.840;2023-02-22T05:47:49;8.90;;;5.93;;
45909;SDS011;31622;55.416;37.840;2023-02-22T05:50:15;7.43;;;5.18;;
45909;SDS011;31622;55.416;37.840;2023-02-22T05:52:41;9.75;;;6.20;;
45909;SDS011;31622;55.416;37.840;2023-02-22T05:55:08;10.23;;;5.93;;
45909;SDS011;31622;55.416;37.840;2023-02-22T05:57:35;9.50;;;6.05;;
45909;SDS011;31622;55.416;37.840;2023-02-22T06:00:01;9.38;;;5.57;;
45909;SDS011;31622;55.416;37.840;2023-02-22T06:02:38;9.68;;;5.55;;
45909;SDS011;31622;55.416;37.840;2023-02-22T06:05:03;8.52;;;5.63;;
45909;SDS011;31622;55.416;37.840;2023-02-22T06:07:29;10.27;;;6.32;;
45909;SDS011;31622;55.416;37.840;2023-02-22T06:09:55;9.38;;;6.18;;
45909;SDS011;31622;55.416;37.840;2023-02-22T06:12:20;10.32;;;6.03;;
45909;SDS011;31622;55.416;37.840;2023-02-22T06:14:46;10.23;;;6.38;;
45909;SDS011;31622;55.416;37.840;2023-02-22T06:17:12;10.27;;;6.20;;
45909;SDS011;31622;55.416;37.840;2023-02-22T06:19:39;8.50;;;6.00;;
45909;SDS011;31622;55.416;37.840;2023-02-22T06:22:05;11.02;;;6.18;;
45909;SDS011;31622;55.416;37.840;2023-02-22T06:24:31;9.18;;;6.10;;
45909;SDS011;31622;55.416;37.840;2023-02-22T06:26:58;8.75;;;5.97;;
45909;SDS011;31622;55.416;37.840;2023-02-22T06:29:26;11.82;;;6.38;;
45909;SDS011;31622;55.416;37.840;2023-02-22T06:31:52;8.85;;;6.20;;
45909;SDS011;31622;55.416;37.840;2023-02-22T06:34:18;10.50;;;5.97;;
45909;SDS011;31622;55.416;37.840;2023-02-22T06:36:46;9.65;;;6.25;;
45909;SDS011;31622;55.416;37.840;2023-02-22T06:39:12;8.90;;;5.57;;
45909;SDS011;31622;55.416;37.840;2023-02-22T06:41:40;9.93;;;5.65;;
45909;SDS011;31622;55.416;37.840;2023-02-22T06:44:07;11.65;;;6.22;;
45909;SDS011;31622;55.416;37.840;2023-02-22T06:46:33;10.73;;;5.60;;
45909;SDS011;31622;55.416;37.840;2023-02-22T06:49:00;10.45;;;5.80;;
45909;SDS011;31622;55.416;37.840;2023-02-22T06:51:26;13.55;;;6.88;;
45909;SDS011;31622;55.416;37.840;2023-02-22T06:53:52;10.50;;;5.97;;
45909;SDS011;31622;55.416;37.840;2023-02-22T06:56:18;9.20;;;6.20;;
45909;SDS011;31622;55.416;37.840;2023-02-22T06:58:44;7.95;;;5.50;;
45909;SDS011;31622;55.416;37.840;2023-02-22T07:01:09;8.85;;;5.57;;
45909;SDS011;31622;55.416;37.840;2023-02-22T07:03:36;9.27;;;5.97;;
45909;SDS011;31622;55.416;37.840;2023-02-22T07:06:01;9.80;;;5.82;;
45909;SDS011;31622;55.416;37.840;2023-02-22T07:08:28;10.35;;;6.28;;
45909;SDS011;31622;55.416;37.840;2023-02-22T07:10:55;8.68;;;5.50;;
45909;SDS011;31622;55.416;37.840;2023-02-22T07:13:20;15.48;;;6.47;;
45909;SDS011;31622;55.416;37.840;2023-02-22T07:15:46;12.93;;;7.03;;
45909;SDS011;31622;55.416;37.840;2023-02-22T07:18:12;10.63;;;7.70;;
45909;SDS011;31622;55.416;37.840;2023-02-22T07:20:40;12.40;;;8.40;;
45909;SDS011;31622;55.416;37.840;2023-02-22T07:23:06;12.18;;;8.00;;
45909;SDS011;31622;55.416;37.840;2023-02-22T07:25:32;13.68;;;7.63;;
45909;SDS011;31622;55.416;37.840;2023-02-22T07:27:58;10.52;;;7.70;;
45909;SDS011;31622;55.416;37.840;2023-02-22T07:30:25;12.05;;;7.47;;
45909;SDS011;31622;55.416;37.840;2023-02-22T07:33:02;10.88;;;7.38;;
45909;SDS011;31622;55.416;37.840;2023-02-22T07:35:30;11.02;;;7.28;;
45909;SDS011;31622;55.416;37.840;2023-02-22T07:37:57;9.73;;;7.00;;
45909;SDS011;31622;55.416;37.840;2023-02-22T07:40:24;9.90;;;6.78;;
45909;SDS011;31622;55.416;37.840;2023-02-22T07:42:52;12.15;;;7.07;;
45909;SDS011;31622;55.416;37.840;2023-02-22T07:45:26;10.02;;;6.78;;
45909;SDS011;31622;55.416;37.840;2023-02-22T07:47:52;11.40;;;7.03;;
45909;SDS011;31622;55.416;37.840;2023-02-22T07:50:19;9.95;;;6.63;;
45909;SDS011;31622;55.416;37.840;2023-02-22T07:52:46;11.65;;;7.32;;
45909;SDS011;31622;55.416;37.840;2023-02-22T07:55:16;10.45;;;7.15;;
45909;SDS011;31622;55.416;37.840;2023-02-22T07:57:46;14.07;;;7.65;;
45909;SDS011;31622;55.416;37.840;2023-02-22T08:00:13;14.15;;;7.93;;
45909;SDS011;31622;55.416;37.840;2023-02-22T08:02:41;11.38;;;7.30;;
45909;SDS011;31622;55.416;37.840;2023-02-22T08:05:08;12.77;;;7.82;;
45909;SDS011;31622;55.416;37.840;2023-02-22T08:07:35;16.20;;;8.30;;
45909;SDS011;31622;55.416;37.840;2023-02-22T08:10:03;13.40;;;8.23;;
45909;SDS011;31622;55.416;37.840;2023-02-22T08:12:34;14.85;;;9.65;;
45909;SDS011;31622;55.416;37.840;2023-02-22T08:15:00;18.88;;;9.73;;
45909;SDS011;31622;55.416;37.840;2023-02-22T08:17:27;14.55;;;9.75;;
45909;SDS011;31622;55.416;37.840;2023-02-22T08:19:53;15.82;;;8.52;;
45909;SDS011;31622;55.416;37.840;2023-02-22T08:22:18;16.75;;;9.07;;
45909;SDS011;31622;55.416;37.840;2023-02-22T08:24:44;11.40;;;8.25;;
45909;SDS011;31622;55.416;37.840;2023-02-22T08:27:10;13.38;;;8.18;;
45909;SDS011;31622;55.416;37.840;2023-02-22T08:29:36;12.90;;;8.07;;
45909;SDS011;31622;55.416;37.840;2023-02-22T08:32:01;12.05;;;7.88;;
45909;SDS011;31622;55.416;37.840;2023-02-22T08:34:27;10.27;;;7.70;;
45909;SDS011;31622;55.416;37.840;2023-02-22T08:36:53;11.48;;;7.45;;
45909;SDS011;31622;55.416;37.840;2023-02-22T08:39:19;9.65;;;7.13;;
45909;SDS011;31622;55.416;37.840;2023-02-22T08:41:45;11.27;;;7.38;;
45909;SDS011;31622;55.416;37.840;2023-02-22T08:44:11;8.85;;;6.53;;
45909;SDS011;31622;55.416;37.840;2023-02-22T08:46:37;10.90;;;7.10;;
45909;SDS011;31622;55.416;37.840;2023-02-22T08:49:03;10.65;;;7.07;;
45909;SDS011;31622;55.416;37.840;2023-02-22T08:51:35;9.70;;;6.70;;
45909;SDS011;31622;55.416;37.840;2023-02-22T08:54:01;9.80;;;6.78;;
45909;SDS011;31622;55.416;37.840;2023-02-22T08:56:28;11.55;;;6.90;;
45909;SDS011;31622;55.416;37.840;2023-02-22T08:58:54;10.05;;;7.32;;
45909;SDS011;31622;55.416;37.840;2023-02-22T09:01:22;12.70;;;9.02;;
45909;SDS011;31622;55.416;37.840;2023-02-22T09:03:48;13.80;;;9.07;;
45909;SDS011;31622;55.416;37.840;2023-02-22T09:06:15;15.60;;;10.93;;
45909;SDS011;31622;55.416;37.840;2023-02-22T09:08:41;16.10;;;12.75;;
45909;SDS011;31622;55.416;37.840;2023-02-22T09:11:07;19.08;;;14.13;;
45909;SDS011;31622;55.416;37.840;2023-02-22T09:13:33;19.65;;;14.73;;
45909;SDS011;31622;55.416;37.840;2023-02-22T09:15:58;17.60;;;14.68;;
45909;SDS011;31622;55.416;37.840;2023-02-22T09:18:25;19.40;;;14.95;;
45909;SDS011;31622;55.416;37.840;2023-02-22T09:20:52;17.65;;;14.68;;
45909;SDS011;31622;55.416;37.840;2023-02-22T09:23:18;20.08;;;15.60;;
45909;SDS011;31622;55.416;37.840;2023-02-22T09:25:45;20.88;;;17.38;;
45909;SDS011;31622;55.416;37.840;2023-02-22T09:28:12;23.42;;;19.33;;
45909;SDS011;31622;55.416;37.840;2023-02-22T09:30:37;23.88;;;18.52;;
45909;SDS011;31622;55.416;37.840;2023-02-22T09:33:13;22.90;;;18.55;;
45909;SDS011;31622;55.416;37.840;2023-02-22T09:35:41;22.45;;;17.88;;
45909;SDS011;31622;55.416;37.840;2023-02-22T09:38:11;22.92;;;19.23;;
45909;SDS011;31622;55.416;37.840;2023-02-22T09:40:39;22.15;;;17.52;;
45909;SDS011;31622;55.416;37.840;2023-02-22T09:43:26;22.70;;;17.50;;
45909;SDS011;31622;55.416;37.840;2023-02-22T09:48:35;22.77;;;17.77;;
45909;SDS011;31622;55.416;37.840;2023-02-22T09:51:32;21.73;;;16.42;;
45909;SDS011;31622;55.416;37.840;2023-02-22T09:54:02;24.15;;;16.98;;
45909;SDS011;31622;55.416;37.840;2023-02-22T09:56:29;20.08;;;16.23;;
45909;SDS011;31622;55.416;37.840;2023-02-22T09:58:58;18.77;;;15.60;;
45909;SDS011;31622;55.416;37.840;2023-02-22T10:01:38;24.05;;;15.68;;
45909;SDS011;31622;55.416;37.840;2023-02-22T10:04:23;17.75;;;14.23;;
45909;SDS011;31622;55.416;37.840;2023-02-22T10:09:21;18.65;;;14.00;;
45909;SDS011;31622;55.416;37.840;2023-02-22T10:11:54;19.63;;;14.18;;
45909;SDS011;31622;55.416;37.840;2023-02-22T10:23:18;16.10;;;11.85;;
45909;SDS011;31622;55.416;37.840;2023-02-22T10:28:49;15.20;;;11.55;;
45909;SDS011;31622;55.416;37.840;2023-02-22T10:31:24;15.68;;;13.02;;
45909;SDS011;31622;55.416;37.840;2023-02-22T10:33:57;22.10;;;15.32;;
45909;SDS011;31622;55.416;37.840;2023-02-22T10:36:25;18.30;;;14.43;;
45909;SDS011;31622;55.416;37.840;2023-02-22T10:38:55;20.50;;;15.43;;
45909;SDS011;31622;55.416;37.840;2023-02-22T10:41:28;19.90;;;15.32;;
45909;SDS011;31622;55.416;37.840;2023-02-22T10:43:55;18.73;;;14.75;;
45909;SDS011;31622;55.416;37.840;2023-02-22T10:46:21;19.35;;;14.20;;
45909;SDS011;31622;55.416;37.840;2023-02-22T10:48:53;21.27;;;15.50;;
45909;SDS011;31622;55.416;37.840;2023-02-22T10:51:20;20.42;;;15.15;;
45909;SDS011;31622;55.416;37.840;2023-02-22T10:53:51;18.77;;;15.15;;
45909;SDS011;31622;55.416;37.840;2023-02-22T10:56:23;18.35;;;14.30;;
45909;SDS011;31622;55.416;37.840;2023-02-22T11:06:29;19.55;;;13.18;;
45909;SDS011;31622;55.416;37.840;2023-02-22T11:09:07;18.08;;;13.60;;
45909;SDS011;31622;55.416;37.840;2023-02-22T11:11:35;18.70;;;13.02;;
45909;SDS011;31622;55.416;37.840;2023-02-22T11:14:01;18.33;;;13.32;;
45909;SDS011;31622;55.416;37.840;2023-02-22T11:16:32;18.33;;;13.25;;
45909;SDS011;31622;55.416;37.840;2023-02-22T11:19:20;15.73;;;11.43;;
45909;SDS011;31622;55.416;37.840;2023-02-22T11:21:52;15.43;;;12.02;;
45909;SDS011;31622;55.416;37.840;2023-02-22T11:24:23;15.32;;;11.93;;
45909;SDS011;31622;55.416;37.840;2023-02-22T11:26:55;14.48;;;10.93;;
45909;SDS011;31622;55.416;37.840;2023-02-22T11:29:25;14.32;;;10.85;;
45909;SDS011;31622;55.416;37.840;2023-02-22T11:32:02;15.25;;;10.30;;
45909;SDS011;31622;55.416;37.840;2023-02-22T11:34:37;13.20;;;10.25;;
45909;SDS011;31622;55.416;37.840;2023-02-22T11:42:36;14.57;;;10.25;;
45909;SDS011;31622;55.416;37.840;2023-02-22T11:45:16;15.88;;;10.07;;
45909;SDS011;31622;55.416;37.840;2023-02-22T11:47:53;16.42;;;10.00;;
45909;SDS011;31622;55.416;37.840;2023-02-22T11:50:30;13.10;;;8.40;;
45909;SDS011;31622;55.416;37.840;2023-02-22T12:18:16;12.52;;;7.75;;
45909;SDS011;31622;55.416;37.840;2023-02-22T12:21:08;11.02;;;7.97;;
45909;SDS011;31622;55.416;37.840;2023-02-22T12:26:23;23.40;;;8.32;;
45909;SDS011;31622;55.416;37.840;2023-02-22T12:28:55;19.67;;;7.35;;
45909;SDS011;31622;55.416;37.840;2023-02-22T12:31:31;18.70;;;7.20;;
45909;SDS011;31622;55.416;37.840;2023-02-22T12:36:50;10.80;;;6.28;;
45909;SDS011;31622;55.416;37.840;2023-02-22T12:45:11;9.73;;;6.32;;
45909;SDS011;31622;55.416;37.840;2023-02-22T12:47:44;10.68;;;7.00;;
45909;SDS011;31622;55.416;37.840;2023-02-22T12:50:22;8.57;;;6.20;;
45909;SDS011;31622;55.416;37.840;2023-02-22T12:52:51;8.98;;;6.00;;
45909;SDS011;31622;55.416;37.840;2023-02-22T12:55:24;11.52;;;6.78;;
45909;SDS011;31622;55.416;37.840;2023-02-22T12:58:08;9.75;;;6.68;;
45909;SDS011;31622;55.416;37.840;2023-02-22T13:00:45;9.93;;;6.38;;
45909;SDS011;31622;55.416;37.840;2023-02-22T13:05:39;11.45;;;6.20;;
45909;SDS011;31622;55.416;37.840;2023-02-22T13:08:16;7.05;;;5.53;;
45909;SDS011;31622;55.416;37.840;2023-02-22T13:16:45;8.02;;;5.50;;
45909;SDS011;31622;55.416;37.840;2023-02-22T13:19:32;8.38;;;5.82;;
45909;SDS011;31622;55.416;37.840;2023-02-22T13:30:13;7.13;;;5.07;;
45909;SDS011;31622;55.416;37.840;2023-02-22T13:32:47;7.97;;;5.40;;
45909;SDS011;31622;55.416;37.840;2023-02-22T13:52:15;7.30;;;5.05;;
45909;SDS011;31622;55.416;37.840;2023-02-22T13:54:45;7.10;;;5.00;;
45909;SDS011;31622;55.416;37.840;2023-02-22T13:57:20;6.70;;;4.88;;
45909;SDS011;31622;55.416;37.840;2023-02-22T13:59:48;6.68;;;4.82;;
45909;SDS011;31622;55.416;37.840;2023-02-22T14:08:02;6.97;;;4.93;;
45909;SDS011;31622;55.416;37.840;2023-02-22T14:10:35;6.70;;;4.68;;
45909;SDS011;31622;55.416;37.840;2023-02-22T14:13:04;6.95;;;4.72;;
45909;SDS011;31622;55.416;37.840;2023-02-22T14:15:30;7.45;;;5.15;;
45909;SDS011;31622;55.416;37.840;2023-02-22T14:17:57;7.68;;;5.25;;
45909;SDS011;31622;55.416;37.840;2023-02-22T14:25:49;6.75;;;4.70;;
45909;SDS011;31622;55.416;37.840;2023-02-22T14:31:04;7.03;;;4.88;;
45909;SDS011;31622;55.416;37.840;2023-02-22T14:39:05;8.00;;;4.63;;
45909;SDS011;31622;55.416;37.840;2023-02-22T14:41:37;7.47;;;4.95;;
45909;SDS011;31622;55.416;37.840;2023-02-22T14:44:05;7.15;;;4.82;;
45909;SDS011;31622;55.416;37.840;2023-02-22T14:46:37;6.93;;;4.57;;
45909;SDS011;31622;55.416;37.840;2023-02-22T14:49:05;8.65;;;4.18;;
45909;SDS011;31622;55.416;37.840;2023-02-22T14:51:40;8.20;;;4.47;;
45909;SDS011;31622;55.416;37.840;2023-02-22T14:54:27;6.43;;;4.65;;
45909;SDS011;31622;55.416;37.840;2023-02-22T14:57:00;7.93;;;5.10;;
45909;SDS011;31622;55.416;37.840;2023-02-22T15:02:38;8.48;;;5.03;;
45909;SDS011;31622;55.416;37.840;2023-02-22T15:05:05;7.57;;;5.13;;
45909;SDS011;31622;55.416;37.840;2023-02-22T15:07:31;8.75;;;5.55;;
45909;SDS011;31622;55.416;37.840;2023-02-22T15:10:20;9.73;;;5.50;;
45909;SDS011;31622;55.416;37.840;2023-02-22T15:13:03;17.20;;;5.40;;
45909;SDS011;31622;55.416;37.840;2023-02-22T15:15:34;8.02;;;4.72;;
45909;SDS011;31622;55.416;37.840;2023-02-22T15:18:01;9.32;;;5.32;;
45909;SDS011;31622;55.416;37.840;2023-02-22T15:20:31;10.70;;;5.88;;
45909;SDS011;31622;55.416;37.840;2023-02-22T15:22:59;9.15;;;5.38;;
45909;SDS011;31622;55.416;37.840;2023-02-22T15:25:26;8.07;;;5.75;;
45909;SDS011;31622;55.416;37.840;2023-02-22T15:27:53;8.25;;;4.88;;
45909;SDS011;31622;55.416;37.840;2023-02-22T15:32:51;7.10;;;4.38;;
45909;SDS011;31622;55.416;37.840;2023-02-22T15:35:19;6.25;;;4.50;;
45909;SDS011;31622;55.416;37.840;2023-02-22T15:37:56;8.25;;;4.95;;
45909;SDS011;31622;55.416;37.840;2023-02-22T15:40:31;7.93;;;4.60;;
45909;SDS011;31622;55.416;37.840;2023-02-22T15:43:01;8.60;;;5.82;;
45909;SDS011;31622;55.416;37.840;2023-02-22T15:45:33;15.88;;;4.10;;
45909;SDS011;31622;55.416;37.840;2023-02-22T15:47:59;8.10;;;4.03;;
45909;SDS011;31622;55.416;37.840;2023-02-22T15:50:28;11.48;;;5.65;;
45909;SDS011;31622;55.416;37.840;2023-02-22T15:52:58;6.85;;;4.20;;
45909;SDS011;31622;55.416;37.840;2023-02-22T15:55:32;7.65;;;4.53;;
45909;SDS011;31622;55.416;37.840;2023-02-22T15:58:21;7.75;;;4.03;;
45909;SDS011;31622;55.416;37.840;2023-02-22T16:01:01;8.00;;;3.92;;
45909;SDS011;31622;55.416;37.840;2023-02-22T16:03:47;6.30;;;3.92;;
45909;SDS011;31622;55.416;37.840;2023-02-22T16:08:53;4.88;;;3.35;;
45909;SDS011;31622;55.416;37.840;2023-02-22T16:11:23;6.15;;;3.72;;
45909;SDS011;31622;55.416;37.840;2023-02-22T16:13:55;6.10;;;4.03;;
45909;SDS011;31622;55.416;37.840;2023-02-22T16:16:28;9.40;;;4.07;;
45909;SDS011;31622;55.416;37.840;2023-02-22T16:21:50;7.20;;;3.85;;
45909;SDS011;31622;55.416;37.840;2023-02-22T16:24:24;10.77;;;4.95;;
45909;SDS011;31622;55.416;37.840;2023-02-22T16:30:00;7.63;;;3.72;;
45909;SDS011;31622;55.416;37.840;2023-02-22T16:32:28;8.23;;;4.38;;
45909;SDS011;31622;55.416;37.840;2023-02-22T16:34:54;8.27;;;5.00;;
45909;SDS011;31622;55.416;37.840;2023-02-22T16:37:20;9.10;;;5.55;;
45909;SDS011;31622;55.416;37.840;2023-02-22T16:39:47;8.70;;;5.80;;
45909;SDS011;31622;55.416;37.840;2023-02-22T16:42:16;11.93;;;6.32;;
45909;SDS011;31622;55.416;37.840;2023-02-22T16:44:49;11.38;;;6.40;;
45909;SDS011;31622;55.416;37.840;2023-02-22T16:47:15;10.85;;;6.82;;
45909;SDS011;31622;55.416;37.840;2023-02-22T16:49:41;11.65;;;6.85;;
45909;SDS011;31622;55.416;37.840;2023-02-22T16:52:07;9.32;;;6.53;;
45909;SDS011;31622;55.416;37.840;2023-02-22T16:54:34;10.02;;;6.40;;
45909;SDS011;31622;55.416;37.840;2023-02-22T16:57:04;11.35;;;6.20;;
45909;SDS011;31622;55.416;37.840;2023-02-22T16:59:38;11.18;;;7.07;;
45909;SDS011;31622;55.416;37.840;2023-02-22T17:02:04;8.57;;;6.03;;
45909;SDS011;31622;55.416;37.840;2023-02-22T17:04:33;11.45;;;5.47;;
45909;SDS011;31622;55.416;37.840;2023-02-22T17:06:59;9.40;;;5.88;;
45909;SDS011;31622;55.416;37.840;2023-02-22T17:09:27;8.90;;;5.57;;
45909;SDS011;31622;55.416;37.840;2023-02-22T17:11:52;8.60;;;5.75;;
45909;SDS011;31622;55.416;37.840;2023-02-22T17:14:20;9.65;;;5.75;;
45909;SDS011;31622;55.416;37.840;2023-02-22T17:16:48;8.25;;;5.80;;
45909;SDS011;31622;55.416;37.840;2023-02-22T17:19:15;8.50;;;5.82;;
45909;SDS011;31622;55.416;37.840;2023-02-22T17:21:42;7.20;;;5.13;;
45909;SDS011;31622;55.416;37.840;2023-02-22T17:24:10;8.77;;;5.45;;
45909;SDS011;31622;55.416;37.840;2023-02-22T17:26:37;7.03;;;4.88;;
45909;SDS011;31622;55.416;37.840;2023-02-22T17:29:02;29.75;;;16.85;;